sensor_id;sensor_type;location;lat;lon;timestamp;pressure;altitude;pressure_sealevel;temperature;humidity
10099;BME280;5089;42.656;23.374;2023-02-19T00:07:25;94964.41;;;10.07;44.61
10099;BME280;5089;42.656;23.374;2023-02-19T00:17:43;94980.22;;;9.98;44.70
10099;BME280;5089;42.656;23.374;2023-02-19T00:20:24;94949.88;;;9.98;44.74
10099;BME280;5089;42.656;23.374;2023-02-19T00:22:52;94994.53;;;10.19;44.86
10099;BME280;5089;42.656;23.374;2023-02-19T00:28:08;94965.47;;;10.01;44.73
10099;BME280;5089;42.656;23.374;2023-02-19T00:30:38;94993.75;;;10.18;44.83
10099;BME280;5089;42.656;23.374;2023-02-19T01:13:14;95049.78;;;10.00;46.99
10099;BME280;5089;42.656;23.374;2023-02-19T01:23:57;95054.28;;;9.84;47.69
10099;BME280;5089;42.656;23.374;2023-02-19T01:58:30;95020.88;;;9.08;48.71
10099;BME280;5089;42.656;23.374;2023-02-19T02:01:16;95009.34;;;9.07;49.43
10099;BME280;5089;42.656;23.374;2023-02-19T02:03:45;95116.06;;;9.42;49.06
10099;BME280;5089;42.656;23.374;2023-02-19T02:06:17;95040.16;;;9.05;49.41
10099;BME280;5089;42.656;23.374;2023-02-19T02:08:51;94939.25;;;8.47;49.24
10099;BME280;5089;42.656;23.374;2023-02-19T05:53:24;95201.38;;;9.13;53.02
10099;BME280;5089;42.656;23.374;2023-02-19T05:58:26;95180.69;;;9.09;52.96
10099;BME280;5089;42.656;23.374;2023-02-19T07:09:37;95178.00;;;12.18;44.28
10099;BME280;5089;42.656;23.374;2023-02-19T07:12:04;95238.53;;;12.55;44.17
10099;BME280;5089;42.656;23.374;2023-02-19T07:14:32;95162.09;;;12.16;43.70
10099;BME280;5089;42.656;23.374;2023-02-19T07:16:59;95175.19;;;12.43;43.38
10099;BME280;5089;42.656;23.374;2023-02-19T07:19:28;95224.09;;;12.90;43.24
10099;BME280;5089;42.656;23.374;2023-02-19T07:27:21;95236.25;;;13.37;42.78
10099;BME280;5089;42.656;23.374;2023-02-19T07:29:48;95151.41;;;13.09;41.37
10099;BME280;5089;42.656;23.374;2023-02-19T07:32:23;95221.22;;;13.64;41.01
10099;BME280;5089;42.656;23.374;2023-02-19T07:34:50;95215.69;;;13.80;41.06
10099;BME280;5089;42.656;23.374;2023-02-19T07:37:18;95179.75;;;13.79;40.74
10099;BME280;5089;42.656;23.374;2023-02-19T07:39:48;95173.16;;;13.90;40.30
10099;BME280;5089;42.656;23.374;2023-02-19T07:42:16;95188.88;;;14.17;40.10
10099;BME280;5089;42.656;23.374;2023-02-19T07:44:45;95182.09;;;14.19;39.75
10099;BME280;5089;42.656;23.374;2023-02-19T07:47:12;95199.50;;;14.61;39.43
10099;BME280;5089;42.656;23.374;2023-02-19T07:49:42;95180.38;;;14.76;39.06
10099;BME280;5089;42.656;23.374;2023-02-19T07:57:18;95198.00;;;15.34;37.96
10099;BME280;5089;42.656;23.374;2023-02-19T07:59:47;95143.09;;;15.10;37.53
10099;BME280;5089;42.656;23.374;2023-02-19T08:02:15;95151.22;;;15.29;37.05
10099;BME280;5089;42.656;23.374;2023-02-19T08:05:00;95138.03;;;15.41;36.80
10099;BME280;5089;42.656;23.374;2023-02-19T08:07:30;95198.06;;;15.99;36.40
10099;BME280;5089;42.656;23.374;2023-02-19T08:09:58;95188.34;;;15.98;36.31
10099;BME280;5089;42.656;23.374;2023-02-19T08:12:38;95184.44;;;16.04;36.09
10099;BME280;5089;42.656;23.374;2023-02-19T08:17:58;95194.75;;;16.34;35.78
10099;BME280;5089;42.656;23.374;2023-02-19T08:20:25;95196.75;;;16.42;35.37
10099;BME280;5089;42.656;23.374;2023-02-19T08:22:52;95201.44;;;16.56;35.24
10099;BME280;5089;42.656;23.374;2023-02-19T08:25:19;95103.50;;;15.98;35.00
10099;BME280;5089;42.656;23.374;2023-02-19T08:27:55;95210.25;;;16.75;34.87
10099;BME280;5089;42.656;23.374;2023-02-19T08:30:38;95185.13;;;16.83;34.60
10099;BME280;5089;42.656;23.374;2023-02-19T08:33:07;95104.91;;;16.50;34.38
10099;BME280;5089;42.656;23.374;2023-02-19T08:35:35;95122.28;;;16.76;34.35
10099;BME280;5089;42.656;23.374;2023-02-19T08:38:03;95199.13;;;17.26;33.91
10099;BME280;5089;42.656;23.374;2023-02-19T08:40:44;95195.91;;;17.37;33.97
10099;BME280;5089;42.656;23.374;2023-02-19T08:43:12;95198.38;;;17.61;33.30
10099;BME280;5089;42.656;23.374;2023-02-19T08:45:43;95180.53;;;17.69;32.83
10099;BME280;5089;42.656;23.374;2023-02-19T08:48:13;95188.56;;;17.96;32.59
10099;BME280;5089;42.656;23.374;2023-02-19T08:50:40;95160.66;;;18.13;32.65
10099;BME280;5089;42.656;23.374;2023-02-19T08:53:07;95173.41;;;18.34;32.35
10099;BME280;5089;42.656;23.374;2023-02-19T08:55:36;95163.66;;;18.64;31.88
10099;BME280;5089;42.656;23.374;2023-02-19T08:58:03;95119.56;;;18.53;31.36
10099;BME280;5089;42.656;23.374;2023-02-19T09:00:30;95162.00;;;19.02;31.70
10099;BME280;5089;42.656;23.374;2023-02-19T09:03:00;95158.81;;;19.26;31.71
10099;BME280;5089;42.656;23.374;2023-02-19T09:05:28;95147.66;;;19.53;30.52
10099;BME280;5089;42.656;23.374;2023-02-19T09:07:55;95158.41;;;19.67;30.32
10099;BME280;5089;42.656;23.374;2023-02-19T09:10:22;95152.94;;;19.84;30.23
10099;BME280;5089;42.656;23.374;2023-02-19T09:12:49;95122.47;;;19.82;30.48
10099;BME280;5089;42.656;23.374;2023-02-19T09:15:16;95125.59;;;20.18;30.00
10099;BME280;5089;42.656;23.374;2023-02-19T09:17:43;95128.75;;;20.75;29.82
10099;BME280;5089;42.656;23.374;2023-02-19T09:20:10;95086.41;;;20.90;29.24
10099;BME280;5089;42.656;23.374;2023-02-19T09:22:39;95108.19;;;21.28;28.71
10099;BME280;5089;42.656;23.374;2023-02-19T09:25:06;95105.66;;;21.44;29.00
10099;BME280;5089;42.656;23.374;2023-02-19T09:27:33;95114.44;;;21.70;28.55
10099;BME280;5089;42.656;23.374;2023-02-19T09:30:00;95120.97;;;21.77;27.66
10099;BME280;5089;42.656;23.374;2023-02-19T09:32:29;95106.59;;;21.48;28.16
10099;BME280;5089;42.656;23.374;2023-02-19T09:34:58;95108.41;;;21.76;27.72
10099;BME280;5089;42.656;23.374;2023-02-19T09:40:12;95046.56;;;21.30;28.11
10099;BME280;5089;42.656;23.374;2023-02-19T09:42:40;95008.16;;;20.86;28.39
10099;BME280;5089;42.656;23.374;2023-02-19T09:45:14;95111.72;;;20.78;29.21
10099;BME280;5089;42.656;23.374;2023-02-19T09:47:43;95111.28;;;20.68;29.59
10099;BME280;5089;42.656;23.374;2023-02-19T09:50:24;95074.38;;;20.07;30.26
10099;BME280;5089;42.656;23.374;2023-02-19T09:53:03;95012.88;;;19.71;30.43
10099;BME280;5089;42.656;23.374;2023-02-19T09:55:48;95085.56;;;20.31;30.13
10099;BME280;5089;42.656;23.374;2023-02-19T09:58:26;95021.72;;;20.15;30.53
10099;BME280;5089;42.656;23.374;2023-02-19T10:00:58;95075.16;;;21.12;29.44
10099;BME280;5089;42.656;23.374;2023-02-19T10:03:29;95024.88;;;21.05;28.48
10099;BME280;5089;42.656;23.374;2023-02-19T10:06:10;95065.28;;;21.61;28.41
10099;BME280;5089;42.656;23.374;2023-02-19T10:08:46;95009.91;;;21.11;28.15
10099;BME280;5089;42.656;23.374;2023-02-19T10:11:27;95065.22;;;22.03;28.04
10099;BME280;5089;42.656;23.374;2023-02-19T10:14:05;94984.41;;;21.84;27.31
10099;BME280;5089;42.656;23.374;2023-02-19T10:19:33;94990.66;;;22.18;26.64
10099;BME280;5089;42.656;23.374;2023-02-19T10:22:11;95016.88;;;22.43;26.70
10099;BME280;5089;42.656;23.374;2023-02-19T10:24:44;95036.72;;;22.52;26.45
10099;BME280;5089;42.656;23.374;2023-02-19T10:27:17;94946.22;;;22.36;26.22
10099;BME280;5089;42.656;23.374;2023-02-19T10:29:46;95001.41;;;23.11;25.54
10099;BME280;5089;42.656;23.374;2023-02-19T10:32:16;94973.16;;;22.71;25.74
10099;BME280;5089;42.656;23.374;2023-02-19T10:34:47;95016.47;;;23.45;25.62
10099;BME280;5089;42.656;23.374;2023-02-19T10:37:18;95009.81;;;23.58;25.52
10099;BME280;5089;42.656;23.374;2023-02-19T10:39:46;94984.72;;;23.44;25.58
10099;BME280;5089;42.656;23.374;2023-02-19T10:42:20;94988.38;;;23.64;25.28
10099;BME280;5089;42.656;23.374;2023-02-19T10:44:50;95003.13;;;23.71;24.80
10099;BME280;5089;42.656;23.374;2023-02-19T10:47:29;95000.13;;;23.48;25.24
10099;BME280;5089;42.656;23.374;2023-02-19T10:50:01;94986.31;;;23.45;25.10
10099;BME280;5089;42.656;23.374;2023-02-19T10:55:29;94982.06;;;23.20;25.19
10099;BME280;5089;42.656;23.374;2023-02-19T11:07:27;94882.69;;;22.31;25.43
10099;BME280;5089;42.656;23.374;2023-02-19T11:09:55;94871.28;;;22.41;25.35
10099;BME280;5089;42.656;23.374;2023-02-19T11:12:24;94956.75;;;22.99;24.89
10099;BME280;5089;42.656;23.374;2023-02-19T11:14:53;94913.53;;;22.80;24.75
10099;BME280;5089;42.656;23.374;2023-02-19T11:17:23;94909.16;;;22.91;24.92
10099;BME280;5089;42.656;23.374;2023-02-19T11:19:51;94860.72;;;22.55;25.04
10099;BME280;5089;42.656;23.374;2023-02-19T11:22:29;94901.63;;;22.88;25.10
10099;BME280;5089;42.656;23.374;2023-02-19T11:25:01;94878.00;;;22.83;24.90
10099;BME280;5089;42.656;23.374;2023-02-19T11:27:29;94865.41;;;22.94;24.92
10099;BME280;5089;42.656;23.374;2023-02-19T11:30:35;94882.19;;;23.21;24.39
10099;BME280;5089;42.656;23.374;2023-02-19T11:33:26;94902.97;;;23.65;23.92
10099;BME280;5089;42.656;23.374;2023-02-19T11:36:20;94915.22;;;23.83;23.81
10099;BME280;5089;42.656;23.374;2023-02-19T11:39:20;94870.56;;;23.55;23.49
10099;BME280;5089;42.656;23.374;2023-02-19T11:42:23;94917.16;;;23.98;23.38
10099;BME280;5089;42.656;23.374;2023-02-19T11:45:06;94791.69;;;23.36;23.35
10099;BME280;5089;42.656;23.374;2023-02-19T11:48:12;94886.06;;;23.79;23.63
10099;BME280;5089;42.656;23.374;2023-02-19T11:53:25;94809.31;;;22.64;24.25
10099;BME280;5089;42.656;23.374;2023-02-19T12:06:56;94776.84;;;22.23;24.45
10099;BME280;5089;42.656;23.374;2023-02-19T12:09:54;94729.03;;;21.80;24.93
10099;BME280;5089;42.656;23.374;2023-02-19T12:12:49;94802.56;;;21.94;24.92
10099;BME280;5089;42.656;23.374;2023-02-19T12:15:26;94851.09;;;22.21;24.99
10099;BME280;5089;42.656;23.374;2023-02-19T12:18:12;94786.50;;;21.80;24.96
10099;BME280;5089;42.656;23.374;2023-02-19T12:20:50;94830.69;;;22.19;25.12
10099;BME280;5089;42.656;23.374;2023-02-19T12:26:58;94781.25;;;21.87;24.98
10099;BME280;5089;42.656;23.374;2023-02-19T12:29:40;94769.16;;;21.88;24.84
10099;BME280;5089;42.656;23.374;2023-02-19T12:32:27;94761.63;;;21.98;24.97
10099;BME280;5089;42.656;23.374;2023-02-19T12:35:23;94812.06;;;22.24;25.24
10099;BME280;5089;42.656;23.374;2023-02-19T12:38:04;94783.59;;;22.13;25.36
10099;BME280;5089;42.656;23.374;2023-02-19T12:40:41;94758.91;;;21.73;25.71
10099;BME280;5089;42.656;23.374;2023-02-19T12:43:17;94789.81;;;21.62;25.92
10099;BME280;5089;42.656;23.374;2023-02-19T12:45:47;94766.69;;;21.23;26.32
10099;BME280;5089;42.656;23.374;2023-02-19T12:48:24;94763.44;;;20.97;26.85
10099;BME280;5089;42.656;23.374;2023-02-19T12:50:56;94789.84;;;20.93;27.20
10099;BME280;5089;42.656;23.374;2023-02-19T12:53:32;94791.38;;;20.69;27.39
10099;BME280;5089;42.656;23.374;2023-02-19T12:56:04;94726.47;;;20.21;27.54
10099;BME280;5089;42.656;23.374;2023-02-19T12:58:39;94756.00;;;20.40;27.52
10099;BME280;5089;42.656;23.374;2023-02-19T13:01:08;94735.88;;;20.45;27.57
10099;BME280;5089;42.656;23.374;2023-02-19T13:03:39;94757.69;;;20.65;27.11
10099;BME280;5089;42.656;23.374;2023-02-19T13:06:19;94738.41;;;20.50;27.46
10099;BME280;5089;42.656;23.374;2023-02-19T13:08:52;94734.13;;;20.61;26.93
10099;BME280;5089;42.656;23.374;2023-02-19T13:11:24;94736.75;;;20.69;26.75
10099;BME280;5089;42.656;23.374;2023-02-19T13:13:57;94749.94;;;20.67;27.26
10099;BME280;5089;42.656;23.374;2023-02-19T13:16:27;94734.69;;;20.66;27.17
10099;BME280;5089;42.656;23.374;2023-02-19T13:18:59;94739.47;;;20.57;27.41
10099;BME280;5089;42.656;23.374;2023-02-19T13:21:30;94729.34;;;20.58;27.14
10099;BME280;5089;42.656;23.374;2023-02-19T13:24:15;94711.47;;;20.60;26.71
10099;BME280;5089;42.656;23.374;2023-02-19T13:27:07;94701.91;;;20.54;26.85
10099;BME280;5089;42.656;23.374;2023-02-19T13:29:58;94713.06;;;20.61;27.26
10099;BME280;5089;42.656;23.374;2023-02-19T13:32:39;94712.16;;;20.57;26.77
10099;BME280;5089;42.656;23.374;2023-02-19T13:38:14;94683.66;;;20.46;26.80
10099;BME280;5089;42.656;23.374;2023-02-19T13:40:52;94691.19;;;20.61;27.00
10099;BME280;5089;42.656;23.374;2023-02-19T13:43:24;94679.50;;;20.61;26.85
10099;BME280;5089;42.656;23.374;2023-02-19T13:45:57;94687.59;;;20.69;26.53
10099;BME280;5089;42.656;23.374;2023-02-19T13:48:27;94685.31;;;20.71;26.44
10099;BME280;5089;42.656;23.374;2023-02-19T13:51:37;94692.59;;;20.79;28.40
10099;BME280;5089;42.656;23.374;2023-02-19T13:54:13;94682.13;;;20.69;26.65
10099;BME280;5089;42.656;23.374;2023-02-19T13:56:45;94686.41;;;20.58;26.61
10099;BME280;5089;42.656;23.374;2023-02-19T13:59:23;94687.78;;;20.52;26.22
10099;BME280;5089;42.656;23.374;2023-02-19T14:02:13;94686.88;;;20.48;26.32
10099;BME280;5089;42.656;23.374;2023-02-19T14:04:53;94687.03;;;20.31;26.46
10099;BME280;5089;42.656;23.374;2023-02-19T14:10:53;94678.28;;;20.25;26.61
10099;BME280;5089;42.656;23.374;2023-02-19T14:16:51;94674.94;;;20.20;27.08
10099;BME280;5089;42.656;23.374;2023-02-19T14:22:57;94675.59;;;20.17;27.37
10099;BME280;5089;42.656;23.374;2023-02-19T14:25:33;94666.03;;;20.11;27.66
10099;BME280;5089;42.656;23.374;2023-02-19T14:28:05;94644.91;;;19.87;27.94
10099;BME280;5089;42.656;23.374;2023-02-19T14:30:42;94653.91;;;19.88;28.19
10099;BME280;5089;42.656;23.374;2023-02-19T14:33:14;94659.63;;;19.74;28.46
10099;BME280;5089;42.656;23.374;2023-02-19T14:35:44;94589.88;;;19.32;28.66
10099;BME280;5089;42.656;23.374;2023-02-19T14:38:18;94649.53;;;19.75;28.81
10099;BME280;5089;42.656;23.374;2023-02-19T14:40:47;94666.63;;;19.63;28.89
10099;BME280;5089;42.656;23.374;2023-02-19T14:43:16;94665.22;;;19.57;29.03
10099;BME280;5089;42.656;23.374;2023-02-19T14:45:45;94632.38;;;19.53;29.17
10099;BME280;5089;42.656;23.374;2023-02-19T14:48:18;94645.41;;;19.68;29.04
10099;BME280;5089;42.656;23.374;2023-02-19T14:50:49;94629.25;;;19.63;28.96
10099;BME280;5089;42.656;23.374;2023-02-19T14:53:21;94651.53;;;19.65;29.05
10099;BME280;5089;42.656;23.374;2023-02-19T14:55:50;94653.88;;;19.55;29.58
10099;BME280;5089;42.656;23.374;2023-02-19T14:58:23;94644.41;;;19.52;29.39
10099;BME280;5089;42.656;23.374;2023-02-19T15:00:51;94601.31;;;19.25;29.35
10099;BME280;5089;42.656;23.374;2023-02-19T15:03:31;94631.19;;;19.42;29.69
10099;BME280;5089;42.656;23.374;2023-02-19T15:06:02;94629.00;;;19.56;29.44
10099;BME280;5089;42.656;23.374;2023-02-19T15:08:35;94626.88;;;19.41;29.40
10099;BME280;5089;42.656;23.374;2023-02-19T15:11:07;94604.50;;;19.27;29.71
10099;BME280;5089;42.656;23.374;2023-02-19T15:13:36;94581.25;;;19.09;29.71
10099;BME280;5089;42.656;23.374;2023-02-19T15:16:14;94553.19;;;18.88;29.66
10099;BME280;5089;42.656;23.374;2023-02-19T15:18:44;94600.13;;;19.14;29.91
10099;BME280;5089;42.656;23.374;2023-02-19T15:21:25;94629.94;;;19.31;29.96
10099;BME280;5089;42.656;23.374;2023-02-19T15:23:55;94621.91;;;19.14;30.10
10099;BME280;5089;42.656;23.374;2023-02-19T15:26:27;94633.09;;;19.21;30.38
10099;BME280;5089;42.656;23.374;2023-02-19T15:29:00;94625.38;;;19.23;30.17
10099;BME280;5089;42.656;23.374;2023-02-19T15:31:27;94615.41;;;19.27;30.23
10099;BME280;5089;42.656;23.374;2023-02-19T15:33:54;94631.09;;;19.30;30.05
10099;BME280;5089;42.656;23.374;2023-02-19T15:36:25;94586.28;;;18.98;30.07
10099;BME280;5089;42.656;23.374;2023-02-19T15:38:57;94613.72;;;19.14;30.13
10099;BME280;5089;42.656;23.374;2023-02-19T15:41:27;94641.06;;;19.26;30.30
10099;BME280;5089;42.656;23.374;2023-02-19T15:44:05;94643.78;;;19.26;30.37
10099;BME280;5089;42.656;23.374;2023-02-19T15:46:36;94628.81;;;19.11;30.27
10099;BME280;5089;42.656;23.374;2023-02-19T15:49:07;94637.50;;;19.05;30.69
10099;BME280;5089;42.656;23.374;2023-02-19T15:51:43;94653.84;;;19.05;30.85
10099;BME280;5089;42.656;23.374;2023-02-19T15:54:21;94648.97;;;18.90;30.81
10099;BME280;5089;42.656;23.374;2023-02-19T16:18:02;94562.03;;;17.63;32.10
10099;BME280;5089;42.656;23.374;2023-02-19T16:20:32;94625.97;;;17.86;32.28
10099;BME280;5089;42.656;23.374;2023-02-19T16:23:17;94696.59;;;18.20;32.65
10099;BME280;5089;42.656;23.374;2023-02-19T16:25:57;94611.44;;;17.56;32.51
10099;BME280;5089;42.656;23.374;2023-02-19T16:28:26;94675.53;;;18.00;32.77
10099;BME280;5089;42.656;23.374;2023-02-19T16:30:55;94688.97;;;17.96;32.75
10099;BME280;5089;42.656;23.374;2023-02-19T16:34:16;94702.38;;;18.01;32.84
10099;BME280;5089;42.656;23.374;2023-02-19T16:47:26;94699.06;;;17.62;33.46
10099;BME280;5089;42.656;23.374;2023-02-19T16:49:59;94728.97;;;17.62;33.71
10099;BME280;5089;42.656;23.374;2023-02-19T16:52:28;94727.00;;;17.53;33.79
10099;BME280;5089;42.656;23.374;2023-02-19T16:54:55;94746.47;;;17.38;33.76
10099;BME280;5089;42.656;23.374;2023-02-19T16:57:22;94749.50;;;17.28;34.06
10099;BME280;5089;42.656;23.374;2023-02-19T16:59:49;94715.41;;;17.05;34.31
10099;BME280;5089;42.656;23.374;2023-02-19T17:02:20;94748.97;;;17.09;34.35
10099;BME280;5089;42.656;23.374;2023-02-19T17:04:48;94732.63;;;16.92;34.46
10099;BME280;5089;42.656;23.374;2023-02-19T17:07:18;94702.38;;;16.76;34.36
10099;BME280;5089;42.656;23.374;2023-02-19T17:09:46;94729.09;;;16.91;34.50
10099;BME280;5089;42.656;23.374;2023-02-19T17:12:15;94742.84;;;16.95;34.70
10099;BME280;5089;42.656;23.374;2023-02-19T17:14:42;94747.31;;;16.91;34.74
10099;BME280;5089;42.656;23.374;2023-02-19T17:17:09;94637.16;;;16.20;34.59
10099;BME280;5089;42.656;23.374;2023-02-19T17:19:36;94716.69;;;16.68;34.68
10099;BME280;5089;42.656;23.374;2023-02-19T17:22:05;94742.66;;;16.83;34.73
10099;BME280;5089;42.656;23.374;2023-02-19T17:24:33;94770.63;;;16.92;34.43
10099;BME280;5089;42.656;23.374;2023-02-19T17:27:01;94726.03;;;16.54;34.49
10099;BME280;5089;42.656;23.374;2023-02-19T17:29:28;94719.72;;;16.36;34.63
10099;BME280;5089;42.656;23.374;2023-02-19T17:31:59;94717.44;;;16.29;34.77
10099;BME280;5089;42.656;23.374;2023-02-19T17:34:34;94780.56;;;16.43;34.90
10099;BME280;5089;42.656;23.374;2023-02-19T17:37:24;94780.19;;;16.14;35.37
10099;BME280;5089;42.656;23.374;2023-02-19T17:39:56;94769.19;;;15.88;35.55
10099;BME280;5089;42.656;23.374;2023-02-19T17:42:23;94791.53;;;15.94;35.53
10099;BME280;5089;42.656;23.374;2023-02-19T17:44:50;94797.16;;;15.98;35.24
10099;BME280;5089;42.656;23.374;2023-02-19T17:47:17;94782.13;;;15.91;35.31
10099;BME280;5089;42.656;23.374;2023-02-19T17:49:44;94781.66;;;15.76;35.17
10099;BME280;5089;42.656;23.374;2023-02-19T17:52:11;94784.84;;;15.78;35.57
10099;BME280;5089;42.656;23.374;2023-02-19T17:54:43;94784.16;;;15.72;35.61
10099;BME280;5089;42.656;23.374;2023-02-19T17:57:12;94780.16;;;15.70;35.64
